Central Valley, Utah
Current Conditions -  °F | °C
As of 12:52 PM on Thursday 29 Jan 2015 (Local Time) from KMLF Reporting Station
Broken Clouds Broken Clouds  
Wind Chill: 39°   Ceiling: 9000
Heat Index: 45°   Visibility: 10mi
Dew Point: 34°   Wind: 12mph
Humidity: 65%   Direction: 10°N
Pressure: 30.28"   Gusts: NA
Location:  38.6125°N, 112.081°W
Report Text: KMLF 291952Z AUTO 01010KT 10SM BKN090 07/01 A3028 RMK AO2 SLP248 T00720011 TSNO
Loading
Personal Weather Stations






























Interactive Weather Map New forecast layout! Learn more

10-Day Weather Forecast

Advertisements
Track Severe Weather on mobile